Dades meteomassalio
Diari Summary for Juliol 18, 2017 Units:  English    Metric   Both
« Previous Day
Next Day »
Diari Semanal Mensual Anual Personalitzat
  Maxima: Minima: Mijana:
Temperatura: TemperatureC °F 18.9 °F 26.4 °F
Rosada: DewpointC °F 12.1 °F 17.1 °F
Humitat: Humidity % 31 % 60 %
Velocitat del vent: WindSpeedKMH mph 0.0 mph 10.3 mph
Racha vent: WindSpeedGustKMH mph - -
Vent:- - ESE
Pressio: PressurehPa in 1010.0 in -
Pluja: 0.0 in    
Historical Graphs
 
 
Tabular Data for Juliol 18, 2017
Time Temperature Dew Point Pressure Wind Wind Speed Wind Gust Humidity Rainfall Rate (Hourly) solar Conditions
TemperatureC °F DewpointC °F PressurehPa in Calm     Humidity % HourlyPrecipMM in SolarRadiationWatts/m^2 W/m2 Conditions
00:02 24.8 °F 14.8 °F 1015.1 in Calm     54 % 0.0 in 0.0 W/m2 RA
00:07 24.6 °F 14.9 °F 1015.1 in Calm   0.2 mph 55 % 0.0 in 0.0 W/m2 CLR
00:12 24.5 °F 15.2 °F 1015.1 in Calm     56 % 0.0 in 0.0 W/m2 CLR
00:17 24.3 °F 15.8 °F 1015.1 in Calm     59 % 0.0 in 0.0 W/m2 CLR
00:22 24.1 °F 16.6 °F 1015.1 in Calm     63 % 0.0 in 0.0 W/m2 CLR
00:27 23.7 °F 17.0 °F 1015.1 in Calm     66 % 0.0 in 0.0 W/m2 CLR
00:32 23.3 °F 17.1 °F 1014.8 in Calm     68 % 0.0 in 0.0 W/m2 CLR
00:37 23.2 °F 17.2 °F 1014.8 in Calm     69 % 0.0 in 0.0 W/m2 CLR
00:42 23.1 °F 17.3 °F 1014.8 in Calm     70 % 0.0 in 0.0 W/m2 CLR
00:47 23.0 °F 17.2 °F 1014.8 in Calm     70 % 0.0 in 0.0 W/m2 CLR
00:52 22.9 °F 17.1 °F 1014.8 in Calm     70 % 0.0 in 0.0 W/m2 CLR
00:57 22.8 °F 17.2 °F 1014.8 in Calm     71 % 0.0 in 0.0 W/m2 CLR
01:02 22.7 °F 16.9 °F 1014.4 in Calm     70 % 0.0 in 0.0 W/m2 CLR
01:07 22.8 °F 16.8 °F 1014.4 in SE 3.7 mph 3.7 mph 69 % 0.0 in 0.0 W/m2 CLR
01:12 22.9 °F 16.9 °F 1014.4 in Calm   0.3 mph 69 % 0.0 in 0.0 W/m2 CLR
01:17 23.0 °F 17.0 °F 1014.4 in Calm     69 % 0.0 in 0.0 W/m2 CLR
01:22 23.0 °F 17.0 °F 1014.8 in Calm     69 % 0.0 in 0.0 W/m2 CLR
01:27 22.9 °F 16.9 °F 1014.8 in Calm     69 % 0.0 in 0.0 W/m2 CLR
01:32 22.9 °F 17.1 °F 1014.4 in Calm     70 % 0.0 in 0.0 W/m2 CLR
01:37 22.8 °F 17.3 °F 1014.4 in Calm     71 % 0.0 in 0.0 W/m2 CLR
01:42 22.7 °F 17.2 °F 1014.4 in Calm     71 % 0.0 in 0.0 W/m2 CLR
01:47 22.6 °F 17.3 °F 1014.4 in Calm     72 % 0.0 in 0.0 W/m2 CLR
01:52 22.6 °F 17.3 °F 1014.4 in Calm     72 % 0.0 in 0.0 W/m2 CLR
01:57 22.6 °F 17.4 °F 1014.8 in Calm     73 % 0.0 in 0.0 W/m2 CLR
01:58 22.6 °F 17.4 °F 1014.8 in Calm     73 % 0.0 in 0.0 W/m2 CLR
02:03 22.6 °F 17.4 °F 1014.4 in Calm     73 % 0.0 in 0.0 W/m2 CLR
02:08 22.4 °F 17.4 °F 1014.4 in Calm     73 % 0.0 in 0.0 W/m2 CLR
02:13 22.3 °F 17.4 °F 1014.4 in Calm     74 % 0.0 in 0.0 W/m2 CLR
02:18 22.3 °F 17.4 °F 1014.4 in Calm     74 % 0.0 in 0.0 W/m2 CLR
02:23 22.3 °F 17.7 °F 1014.4 in Calm     75 % 0.0 in 0.0 W/m2 CLR
02:28 22.3 °F 17.6 °F 1014.4 in Calm     75 % 0.0 in 0.0 W/m2 CLR
02:33 22.1 °F 17.4 °F 1014.8 in Calm     75 % 0.0 in 0.0 W/m2 CLR
02:38 21.9 °F 17.4 °F 1014.8 in Calm     76 % 0.0 in 0.0 W/m2 CLR
02:43 21.6 °F 17.2 °F 1014.8 in Calm     76 % 0.0 in 0.0 W/m2 CLR
02:48 21.4 °F 17.0 °F 1014.4 in Calm     76 % 0.0 in 0.0 W/m2 CLR
02:53 21.3 °F 17.1 °F 1014.4 in Calm     77 % 0.0 in 0.0 W/m2 CLR
02:58 21.4 °F 17.2 °F 1014.4 in Calm     77 % 0.0 in 0.0 W/m2 CLR
03:03 21.4 °F 17.2 °F 1014.4 in Calm     77 % 0.0 in 0.0 W/m2 CLR
03:08 21.4 °F 17.2 °F 1014.4 in Calm     77 % 0.0 in 0.0 W/m2 CLR
03:13 21.6 °F 16.9 °F 1014.4 in Calm     75 % 0.0 in 0.0 W/m2 CLR
03:18 21.8 °F 16.9 °F 1014.4 in SE 5.6 mph 5.6 mph 74 % 0.0 in 0.0 W/m2 CLR
03:23 22.1 °F 17.2 °F 1014.4 in ESE 3.2 mph   74 % 0.0 in 0.0 W/m2 CLR
03:28 22.2 °F 17.1 °F 1014.4 in Calm     73 % 0.0 in 0.0 W/m2 CLR
03:33 22.2 °F 17.1 °F 1014.4 in Calm     73 % 0.0 in 0.0 W/m2 CLR
03:38 22.2 °F 16.9 °F 1014.1 in Calm     72 % 0.0 in 0.0 W/m2 CLR
03:43 22.2 °F 16.9 °F 1014.1 in Calm     72 % 0.0 in 0.0 W/m2 CLR
03:48 21.9 °F 17.1 °F 1014.1 in NNE 1.6 mph   74 % 0.0 in 0.0 W/m2 CLR
03:53 21.7 °F 17.1 °F 1014.1 in Calm     75 % 0.0 in 0.0 W/m2 CLR
03:58 21.4 °F 17.2 °F 1014.1 in Calm     77 % 0.0 in 0.0 W/m2 CLR
04:03 21.4 °F 17.6 °F 1014.1 in NE 1.6 mph 1.6 mph 79 % 0.0 in 0.0 W/m2 CLR
04:08 21.4 °F 17.8 °F 1014.1 in Calm     80 % 0.0 in 0.0 W/m2 CLR
04:13 21.4 °F 17.8 °F 1014.1 in Calm     80 % 0.0 in 0.0 W/m2 CLR
04:18 21.3 °F 17.9 °F 1014.1 in Calm     81 % 0.0 in 0.0 W/m2 CLR
04:23 21.2 °F 17.8 °F 1014.1 in Calm     81 % 0.0 in 0.0 W/m2 CLR
04:28 21.2 °F 17.8 °F 1014.1 in Calm     81 % 0.0 in 0.0 W/m2 CLR
04:33 21.1 °F 17.7 °F 1013.8 in Calm     81 % 0.0 in 0.0 W/m2 CLR
04:38 21.1 °F 17.7 °F 1013.8 in Calm     81 % 0.0 in 0.0 W/m2 CLR
04:43 21.0 °F 17.4 °F 1013.8 in Calm     80 % 0.0 in 0.0 W/m2 CLR
04:48 21.0 °F 17.6 °F 1013.8 in Calm     81 % 0.0 in 0.0 W/m2 CLR
04:53 21.0 °F 17.6 °F 1013.8 in Calm     81 % 0.0 in 0.0 W/m2 CLR
04:58 20.8 °F 17.3 °F 1013.8 in Calm     80 % 0.0 in 0.0 W/m2 CLR
05:03 20.7 °F 17.1 °F 1013.8 in Calm     80 % 0.0 in 0.0 W/m2 CLR
05:08 20.6 °F 17.2 °F 1013.8 in Calm     81 % 0.0 in 0.0 W/m2 CLR
05:13 20.5 °F 17.3 °F 1013.8 in Calm     82 % 0.0 in 0.0 W/m2 CLR
05:18 20.6 °F 17.4 °F 1013.8 in Calm     82 % 0.0 in 0.0 W/m2 CLR
05:23 20.6 °F 17.4 °F 1013.8 in Calm     82 % 0.0 in 0.0 W/m2 CLR
05:28 20.7 °F 17.5 °F 1013.8 in Calm     82 % 0.0 in 0.0 W/m2 CLR
05:33 20.6 °F 17.0 °F 1013.8 in Calm     80 % 0.0 in 0.0 W/m2 CLR
05:38 20.4 °F 17.1 °F 1013.8 in Calm     81 % 0.0 in 0.0 W/m2 CLR
05:43 20.2 °F 16.8 °F 1013.8 in Calm     81 % 0.0 in 0.0 W/m2 CLR
05:48 20.1 °F 16.9 °F 1013.8 in Calm     82 % 0.0 in 0.0 W/m2 CLR
05:53 19.9 °F 16.9 °F 1013.8 in Calm     83 % 0.0 in 0.0 W/m2 CLR
05:58 19.9 °F 17.2 °F 1013.8 in Calm     84 % 0.0 in 0.0 W/m2 CLR
06:03 20.1 °F 17.1 °F 1013.8 in Calm     83 % 0.0 in 0.0 W/m2 CLR
06:08 20.1 °F 17.1 °F 1013.8 in Calm     83 % 0.0 in 0.0 W/m2 CLR
06:13 20.2 °F 17.1 °F 1013.8 in Calm     82 % 0.0 in 0.0 W/m2 CLR
06:18 20.4 °F 17.2 °F 1013.8 in Calm     82 % 0.0 in 0.0 W/m2 CLR
06:24 20.4 °F 16.8 °F 1014.1 in Calm     80 % 0.0 in 0.0 W/m2 CLR
06:29 20.2 °F 16.8 °F 1014.1 in Calm     81 % 0.0 in 0.0 W/m2 CLR
06:34 19.9 °F 16.6 °F 1014.1 in Calm     81 % 0.0 in 0.0 W/m2 OVC
06:39 19.7 °F 16.8 °F 1014.1 in Calm     83 % 0.0 in 0.0 W/m2 OVC
06:43 19.6 °F 16.6 °F 1014.1 in Calm     83 % 0.0 in 0.0 W/m2 OVC
06:49 19.5 °F 16.7 °F 1014.1 in Calm     84 % 0.0 in 5.0 W/m2 OVC
06:54 19.3 °F 16.6 °F 1014.1 in Calm     84 % 0.0 in 9.0 W/m2 BKN
06:59 19.3 °F 16.7 °F 1014.1 in Calm     85 % 0.0 in 11.0 W/m2 BKN
07:04 19.3 °F 16.7 °F 1014.1 in Calm     85 % 0.0 in 14.0 W/m2 BKN
07:09 19.1 °F 16.6 °F 1014.1 in Calm     85 % 0.0 in 19.0 W/m2 BKN
07:14 18.9 °F 16.4 °F 1014.1 in Calm     85 % 0.0 in 25.0 W/m2 BKN
07:19 18.9 °F 16.4 °F 1014.4 in Calm     85 % 0.0 in 32.0 W/m2 BKN
07:24 19.0 °F 16.6 °F 1014.4 in Calm     86 % 0.0 in 37.0 W/m2 BKN
07:29 19.0 °F 16.6 °F 1014.4 in Calm     86 % 0.0 in 47.0 W/m2 SCT
07:34 19.1 °F 16.7 °F 1014.4 in Calm     86 % 0.0 in 56.0 W/m2 SCT
07:39 19.2 °F 17.0 °F 1014.4 in Calm     87 % 0.0 in 70.0 W/m2 FEW
07:44 19.2 °F 16.8 °F 1014.4 in Calm     86 % 0.0 in 86.0 W/m2 FEW
07:49 19.3 °F 16.9 °F 1014.4 in Calm     86 % 0.0 in 107.0 W/m2 CLR
07:54 19.4 °F 16.8 °F 1014.4 in Calm     85 % 0.0 in 111.0 W/m2 CLR
07:59 19.6 °F 16.9 °F 1014.4 in Calm     85 % 0.0 in 102.0 W/m2 CLR
08:04 19.7 °F 17.1 °F 1014.4 in Calm     85 % 0.0 in 100.0 W/m2 CLR
08:09 19.9 °F 17.3 °F 1014.4 in Calm     85 % 0.0 in 100.0 W/m2 CLR
08:14 20.1 °F 17.3 °F 1014.4 in Calm     84 % 0.0 in 111.0 W/m2 CLR
08:19 20.3 °F 17.3 °F 1014.8 in Calm     83 % 0.0 in 135.0 W/m2 CLR
08:24 20.5 °F 17.5 °F 1014.8 in Calm     83 % 0.0 in 125.0 W/m2 CLR
08:29 20.8 °F 17.6 °F 1014.8 in Calm     82 % 0.0 in 111.0 W/m2 CLR
08:34 20.9 °F 17.6 °F 1014.8 in Calm     81 % 0.0 in 107.0 W/m2 CLR
08:39 21.1 °F 17.7 °F 1014.8 in Calm     81 % 0.0 in 137.0 W/m2 CLR
08:44 21.3 °F 17.7 °F 1014.8 in Calm     80 % 0.0 in 237.0 W/m2 CLR
08:49 21.6 °F 17.8 °F 1014.8 in Calm     79 % 0.0 in 248.0 W/m2 CLR
08:54 21.8 °F 17.6 °F 1014.8 in Calm     77 % 0.0 in 153.0 W/m2 CLR
08:59 22.1 °F 17.7 °F 1014.8 in Calm     76 % 0.0 in 206.0 W/m2 CLR
09:04 22.5 °F 17.6 °F 1014.8 in Calm     74 % 0.0 in 292.0 W/m2 CLR
09:09 22.9 °F 17.4 °F 1014.8 in Calm     71 % 0.0 in 244.0 W/m2 CLR
09:14 23.4 °F 17.9 °F 1014.8 in Calm     71 % 0.0 in 399.0 W/m2 CLR
09:19 24.1 °F 18.2 °F 1014.8 in Calm     70 % 0.0 in 381.0 W/m2 CLR
09:24 24.6 °F 18.3 °F 1014.8 in Calm     68 % 0.0 in 343.0 W/m2 CLR
09:29 25.1 °F 18.3 °F 1014.8 in Calm     66 % 0.0 in 144.0 W/m2 CLR
09:34 25.3 °F 18.1 °F 1014.8 in Calm     64 % 0.0 in 128.0 W/m2 CLR
09:39 25.3 °F 18.0 °F 1014.8 in Calm     64 % 0.0 in 127.0 W/m2 CLR
09:44 25.2 °F 18.1 °F 1014.8 in Calm     65 % 0.0 in 125.0 W/m2 CLR
09:49 25.1 °F 18.1 °F 1014.8 in Calm     65 % 0.0 in 128.0 W/m2 CLR
09:54 25.1 °F 18.1 °F 1014.8 in Calm     65 % 0.0 in 97.0 W/m2 CLR
09:59 25.1 °F 17.8 °F 1014.8 in Calm     64 % 0.0 in 97.0 W/m2 CLR
10:04 25.1 °F 17.6 °F 1014.8 in Calm     63 % 0.0 in 204.0 W/m2 CLR
10:09 25.3 °F 18.1 °F 1014.8 in Calm     64 % 0.0 in 485.0 W/m2 CLR
10:14 25.8 °F 18.3 °F 1014.8 in Calm     63 % 0.0 in 506.0 W/m2 CLR
10:20 26.4 °F 18.3 °F 1014.4 in Calm     61 % 0.0 in 529.0 W/m2 CLR
10:25 26.9 °F 17.4 °F 1014.8 in Calm     56 % 0.0 in 545.0 W/m2 CLR
10:30 27.3 °F 18.1 °F 1014.8 in Calm     57 % 0.0 in 555.0 W/m2 CLR
10:35 27.6 °F 18.6 °F 1014.4 in Calm     58 % 0.0 in 571.0 W/m2 CLR
10:40 27.7 °F 17.6 °F 1014.4 in Calm     54 % 0.0 in 585.0 W/m2 CLR
10:45 27.8 °F 16.4 °F 1014.4 in Calm     50 % 0.0 in 599.0 W/m2 CLR
10:50 27.9 °F 16.2 °F 1014.4 in ENE 3.7 mph 3.7 mph 49 % 0.0 in 615.0 W/m2 CLR
10:55 28.1 °F 16.4 °F 1014.4 in ENE 3.7 mph   49 % 0.0 in 631.0 W/m2 CLR
11:00 28.4 °F 16.3 °F 1014.4 in ENE 8.0 mph 8.0 mph 48 % 0.0 in 643.0 W/m2 CLR
11:05 28.7 °F 13.7 °F 1014.1 in SE 16.7 mph 16.7 mph 40 % 0.0 in 661.0 W/m2 CLR
11:10 29.0 °F 13.7 °F 1014.1 in ESE 13.0 mph 13.0 mph 39 % 0.0 in 671.0 W/m2 CLR
11:15 29.1 °F 12.5 °F 1014.1 in SE 19.3 mph 19.3 mph 36 % 0.0 in 684.0 W/m2 CLR
11:20 29.1 °F 12.4 °F 1014.1 in SE 18.5 mph 18.5 mph 36 % 0.0 in 696.0 W/m2 CLR
11:25 29.2 °F 12.2 °F 1014.1 in SE 18.5 mph 18.5 mph 35 % 0.0 in 710.0 W/m2 CLR
11:30 29.3 °F 12.3 °F 1014.1 in ESE 20.4 mph 20.4 mph 35 % 0.0 in 724.0 W/m2 CLR
11:35 29.4 °F 12.4 °F 1014.1 in SE 18.5 mph 18.5 mph 35 % 0.0 in 737.0 W/m2 CLR
11:40 29.6 °F 12.1 °F 1013.8 in SE 14.8 mph 14.8 mph 34 % 0.0 in 749.0 W/m2 CLR
11:45 29.8 °F 12.2 °F 1013.8 in SE 9.3 mph 9.3 mph 34 % 0.0 in 752.0 W/m2 CLR
11:50 30.1 °F 12.1 °F 1013.8 in SSE 16.7 mph 16.7 mph 33 % 0.0 in 763.0 W/m2 CLR
11:55 30.3 °F 12.7 °F 1013.8 in SE 13.0 mph 13.0 mph 34 % 0.0 in 772.0 W/m2 CLR
12:00 30.5 °F 12.9 °F 1013.8 in SSE 18.5 mph 18.5 mph 34 % 0.0 in 779.0 W/m2 CLR
12:05 30.6 °F 13.3 °F 1013.8 in East 3.7 mph 3.7 mph 35 % 0.0 in 788.0 W/m2 CLR
12:10 30.8 °F 13.6 °F 1013.8 in ESE 14.8 mph 14.8 mph 35 % 0.0 in 795.0 W/m2 CLR
12:15 31.3 °F 14.4 °F 1013.8 in ESE 3.7 mph 3.7 mph 36 % 0.0 in 807.0 W/m2 CLR
12:20 31.7 °F 13.4 °F 1013.4 in SE 5.6 mph 5.6 mph 33 % 0.0 in 814.0 W/m2 CLR
12:25 32.0 °F 14.6 °F 1013.4 in ESE 11.1 mph 11.1 mph 35 % 0.0 in 819.0 W/m2 CLR
12:30 32.2 °F 14.4 °F 1013.4 in ENE 7.4 mph 7.4 mph 34 % 0.0 in 830.0 W/m2 CLR
12:35 32.3 °F 14.4 °F 1013.4 in ENE 4.8 mph 4.8 mph 34 % 0.0 in 833.0 W/m2 CLR
12:40 32.4 °F 13.6 °F 1013.4 in ENE 11.1 mph 11.1 mph 32 % 0.0 in 838.0 W/m2 CLR
12:45 32.4 °F 14.1 °F 1013.4 in ESE 3.7 mph 3.7 mph 33 % 0.0 in 844.0 W/m2 CLR
12:50 32.6 °F 14.7 °F 1013.4 in East 11.1 mph 11.1 mph 34 % 0.0 in 853.0 W/m2 CLR
12:55 32.8 °F 14.4 °F 1013.4 in ESE 18.5 mph 18.5 mph 33 % 0.0 in 856.0 W/m2 CLR
13:00 32.9 °F 14.6 °F 1013.4 in East 9.7 mph 9.7 mph 33 % 0.0 in 865.0 W/m2 CLR
13:05 33.2 °F 14.7 °F 1013.1 in East 13.0 mph 13.0 mph 33 % 0.0 in 867.0 W/m2 CLR
13:10 33.4 °F 14.9 °F 1013.1 in ENE 16.7 mph 16.7 mph 33 % 0.0 in 874.0 W/m2 CLR
13:15 33.4 °F 14.5 °F 1013.1 in East 18.5 mph 18.5 mph 32 % 0.0 in 877.0 W/m2 CLR
13:20 33.4 °F 14.4 °F 1013.1 in East 14.8 mph 14.8 mph 32 % 0.0 in 881.0 W/m2 CLR
13:25 33.6 °F 14.6 °F 1012.8 in SE 16.7 mph 16.7 mph 32 % 0.0 in 881.0 W/m2 CLR
13:30 33.7 °F 14.2 °F 1012.8 in ESE 13.0 mph 13.0 mph 31 % 0.0 in 886.0 W/m2 CLR
13:31 33.7 °F 14.7 °F 1012.8 in East 13.0 mph 13.0 mph 32 % 0.0 in 886.0 W/m2 CLR
13:36 33.9 °F 15.3 °F 1012.8 in East 14.8 mph 14.8 mph 33 % 0.0 in 889.0 W/m2 CLR
13:41 33.9 °F 14.9 °F 1012.4 in ENE 20.4 mph 20.4 mph 32 % 0.0 in 895.0 W/m2 CLR
13:46 34.3 °F 14.7 °F 1012.8 in East 18.5 mph 18.5 mph 31 % 0.0 in 895.0 W/m2 CLR
13:51 34.4 °F 15.3 °F 1012.4 in East 13.0 mph 13.0 mph 32 % 0.0 in 898.0 W/m2 CLR
13:56 34.4 °F 16.3 °F 1012.4 in East 18.5 mph 18.5 mph 34 % 0.0 in 911.0 W/m2 CLR
14:01 34.2 °F 16.1 °F 1012.4 in ESE 24.1 mph 24.1 mph 34 % 0.0 in 925.0 W/m2 CLR
14:06 34.2 °F 16.1 °F 1012.4 in SE 25.9 mph 25.9 mph 34 % 0.0 in 925.0 W/m2 CLR
14:11 34.2 °F 16.1 °F 1012.1 in East 20.4 mph 20.4 mph 34 % 0.0 in 928.0 W/m2 CLR
14:16 34.3 °F 16.7 °F 1012.1 in SE 25.7 mph 25.7 mph 35 % 0.0 in 962.0 W/m2 CLR
14:21 34.6 °F 16.4 °F 1012.1 in SE 24.1 mph 24.1 mph 34 % 0.0 in 1009.0 W/m2 CLR
14:26 34.3 °F 16.7 °F 1012.1 in SE 24.1 mph 24.1 mph 35 % 0.0 in 520.0 W/m2 CLR
14:31 34.1 °F 16.9 °F 1012.1 in SE 29.6 mph 29.6 mph 36 % 0.0 in 508.0 W/m2 CLR
14:36 33.8 °F 17.5 °F 1012.1 in ESE 25.9 mph 25.9 mph 38 % 0.0 in 420.0 W/m2 CLR
14:41 33.9 °F 18.0 °F 1012.1 in ESE 27.8 mph 27.8 mph 39 % 0.0 in 1014.0 W/m2 CLR
14:46 34.0 °F 18.1 °F 1012.1 in ESE 25.9 mph 25.9 mph 39 % 0.0 in 995.0 W/m2 CLR
14:51 34.2 °F 17.8 °F 1012.1 in ESE 29.6 mph 29.6 mph 38 % 0.0 in 951.0 W/m2 CLR
14:56 33.9 °F 18.1 °F 1011.7 in ESE 31.5 mph 31.5 mph 39 % 0.0 in 330.0 W/m2 CLR
15:01 33.7 °F 17.8 °F 1011.7 in ESE 31.5 mph 31.5 mph 39 % 0.0 in 297.0 W/m2 CLR
15:06 33.8 °F 18.3 °F 1011.4 in ESE 29.6 mph 29.6 mph 40 % 0.0 in 438.0 W/m2 CLR
15:11 33.5 °F 18.4 °F 1011.4 in SSE 27.8 mph 27.8 mph 41 % 0.0 in 557.0 W/m2 CLR
15:16 33.8 °F 18.3 °F 1011.1 in East 33.8 mph 33.8 mph 40 % 0.0 in 671.0 W/m2 CLR
15:21 33.7 °F 18.2 °F 1011.1 in ESE 35.2 mph 35.2 mph 40 % 0.0 in 745.0 W/m2 CLR
15:26 33.7 °F 18.7 °F 1011.1 in SE 32.2 mph 32.2 mph 41 % 0.0 in 824.0 W/m2 CLR
15:31 34.1 °F 18.2 °F 1011.1 in SE 33.3 mph 33.3 mph 39 % 0.0 in 895.0 W/m2 CLR
15:36 34.1 °F 18.6 °F 1011.1 in South 24.1 mph 24.1 mph 40 % 0.0 in 861.0 W/m2 CLR
15:41 34.4 °F 18.0 °F 1011.1 in SSE 25.7 mph 25.7 mph 38 % 0.0 in 805.0 W/m2 CLR
15:46 34.5 °F 17.7 °F 1010.7 in ESE 24.1 mph 24.1 mph 37 % 0.0 in 814.0 W/m2 CLR
15:51 34.3 °F 17.5 °F 1011.1 in ESE 29.0 mph 29.0 mph 37 % 0.0 in 803.0 W/m2 CLR
15:56 34.4 °F 17.7 °F 1010.7 in ESE 22.2 mph 22.2 mph 37 % 0.0 in 796.0 W/m2 CLR
16:01 34.5 °F 17.7 °F 1010.7 in SSE 30.6 mph 30.6 mph 37 % 0.0 in 788.0 W/m2 CLR
16:06 34.4 °F 17.7 °F 1010.7 in SE 22.2 mph 22.2 mph 37 % 0.0 in 782.0 W/m2 CLR
16:11 34.4 °F 17.7 °F 1010.7 in ESE 29.6 mph 29.6 mph 37 % 0.0 in 777.0 W/m2 CLR
16:16 34.5 °F 18.1 °F 1010.7 in SSE 31.5 mph 31.5 mph 38 % 0.0 in 770.0 W/m2 CLR
16:21 34.3 °F 17.5 °F 1010.7 in SE 31.5 mph 31.5 mph 37 % 0.0 in 768.0 W/m2 CLR
16:26 34.2 °F 17.9 °F 1010.7 in SE 29.0 mph 29.0 mph 38 % 0.0 in 770.0 W/m2 CLR
16:31 33.9 °F 17.6 °F 1010.7 in SE 31.5 mph 31.5 mph 38 % 0.0 in 800.0 W/m2 CLR
16:36 34.1 °F 17.8 °F 1010.7 in SSE 27.8 mph 27.8 mph 38 % 0.0 in 663.0 W/m2 CLR
16:42 34.1 °F 17.8 °F 1010.7 in SE 37.0 mph 37.0 mph 38 % 0.0 in 826.0 W/m2 CLR
16:47 33.9 °F 17.6 °F 1010.7 in SE 22.2 mph 22.2 mph 38 % 0.0 in 429.0 W/m2 CLR
16:51 33.7 °F 17.8 °F 1010.7 in ESE 27.4 mph 27.4 mph 39 % 0.0 in 251.0 W/m2 CLR
16:56 33.3 °F 17.4 °F 1010.7 in ESE 20.9 mph 20.9 mph 39 % 0.0 in 399.0 W/m2 CLR
17:01 33.2 °F 17.4 °F 1010.7 in SE 24.1 mph 24.1 mph 39 % 0.0 in 415.0 W/m2 CLR
17:06 33.2 °F 17.3 °F 1010.7 in ESE 20.9 mph 20.9 mph 39 % 0.0 in 728.0 W/m2 CLR
17:12 33.3 °F 17.4 °F 1010.4 in ESE 29.6 mph 29.6 mph 39 % 0.0 in 457.0 W/m2 CLR
17:17 33.1 °F 18.4 °F 1010.4 in East 24.1 mph 24.1 mph 42 % 0.0 in 490.0 W/m2 CLR
17:22 33.2 °F 17.3 °F 1010.4 in ESE 25.9 mph 25.9 mph 39 % 0.0 in 290.0 W/m2 CLR
17:27 33.1 °F 16.9 °F 1010.4 in SE 31.5 mph 31.5 mph 38 % 0.0 in 367.0 W/m2 CLR
17:31 33.2 °F 18.2 °F 1010.4 in SE 24.1 mph 24.1 mph 41 % 0.0 in 494.0 W/m2 CLR
17:36 33.0 °F 18.0 °F 1010.4 in SE 22.5 mph 22.5 mph 41 % 0.0 in 339.0 W/m2 CLR
17:42 33.5 °F 16.8 °F 1010.0 in SSE 25.9 mph 25.9 mph 37 % 0.0 in 221.0 W/m2 CLR
17:47 33.1 °F 17.3 °F 1010.0 in SE 22.5 mph 22.5 mph 39 % 0.0 in 214.0 W/m2 CLR
17:52 32.8 °F 17.0 °F 1010.4 in SE 31.5 mph 31.5 mph 39 % 0.0 in 141.0 W/m2 CLR
17:57 32.4 °F 17.4 °F 1010.4 in SE 24.1 mph 24.1 mph 41 % 0.0 in 120.0 W/m2 CLR
18:02 31.8 °F 17.3 °F 1010.7 in SE 24.1 mph 24.1 mph 42 % 0.0 in 118.0 W/m2 CLR
18:07 31.7 °F 16.8 °F 1010.7 in SE 25.7 mph 25.7 mph 41 % 0.0 in 134.0 W/m2 CLR
18:12 31.7 °F 17.2 °F 1010.7 in ESE 24.1 mph 24.1 mph 42 % 0.0 in 135.0 W/m2 CLR
18:17 31.4 °F 17.3 °F 1010.7 in SE 18.5 mph 18.5 mph 43 % 0.0 in 137.0 W/m2 CLR
18:22 31.4 °F 17.0 °F 1010.7 in SE 11.1 mph 11.1 mph 42 % 0.0 in 128.0 W/m2 CLR
18:27 31.5 °F 17.4 °F 1010.7 in SE 18.5 mph 18.5 mph 43 % 0.0 in 118.0 W/m2 CLR
18:32 31.3 °F 17.3 °F 1011.1 in SE 13.0 mph 13.0 mph 43 % 0.0 in 104.0 W/m2 CLR
18:37 31.2 °F 17.4 °F 1011.1 in SE 18.5 mph 18.5 mph 44 % 0.0 in 90.0 W/m2 CLR
18:42 30.9 °F 17.6 °F 1011.7 in ESE 9.3 mph 9.3 mph 45 % 0.0 in 81.0 W/m2 CLR
18:47 30.7 °F 17.8 °F 1012.1 in ENE 5.6 mph 5.6 mph 46 % 0.0 in 76.0 W/m2 FEW
18:52 30.5 °F 17.6 °F 1012.1 in ENE 5.6 mph 5.6 mph 46 % 0.0 in 86.0 W/m2 FEW
18:57 30.4 °F 17.8 °F 1012.1 in ENE 11.1 mph 11.1 mph 47 % 0.0 in 102.0 W/m2 CLR
19:02 30.1 °F 17.9 °F 1011.7 in East 16.7 mph 16.7 mph 48 % 0.0 in 104.0 W/m2 CLR
19:07 29.8 °F 17.7 °F 1011.4 in East 18.5 mph 18.5 mph 48 % 0.0 in 97.0 W/m2 CLR
19:12 29.7 °F 17.5 °F 1011.4 in ESE 22.2 mph 22.2 mph 48 % 0.0 in 79.0 W/m2 CLR
19:17 29.6 °F 17.4 °F 1011.4 in ESE 22.2 mph 22.2 mph 48 % 0.0 in 70.0 W/m2 FEW
19:22 29.3 °F 18.4 °F 1011.4 in East 20.4 mph 20.4 mph 52 % 0.0 in 77.0 W/m2 FEW
19:27 28.7 °F 19.0 °F 1011.4 in ESE 22.2 mph 22.2 mph 56 % 0.0 in 86.0 W/m2 FEW
19:32 28.1 °F 19.1 °F 1011.7 in East 16.7 mph 16.7 mph 58 % 0.0 in 93.0 W/m2 FEW
19:37 27.9 °F 19.1 °F 1011.7 in NNE 7.4 mph 7.4 mph 59 % 0.0 in 97.0 W/m2 CLR
19:42 27.8 °F 19.1 °F 1012.1 in Calm     59 % 0.0 in 97.0 W/m2 CLR
19:47 27.7 °F 19.2 °F 1012.1 in ENE 7.4 mph 7.4 mph 60 % 0.0 in 91.0 W/m2 CLR
19:52 27.6 °F 19.2 °F 1012.1 in East 16.7 mph 16.7 mph 60 % 0.0 in 81.0 W/m2 CLR
19:57 27.5 °F 18.8 °F 1012.1 in ENE 14.8 mph 14.8 mph 59 % 0.0 in 69.0 W/m2 FEW
20:02 27.4 °F 19.0 °F 1012.1 in Calm     60 % 0.0 in 51.0 W/m2 FEW
20:07 27.4 °F 18.9 °F 1012.4 in SE 6.4 mph 6.4 mph 60 % 0.0 in 44.0 W/m2 SCT
20:12 27.4 °F 18.7 °F 1012.4 in ESE 18.5 mph 18.5 mph 59 % 0.0 in 37.0 W/m2 SCT
20:17 27.3 °F 18.6 °F 1012.8 in SE 20.4 mph 20.4 mph 59 % 0.0 in 32.0 W/m2 BKN
20:22 27.3 °F 18.3 °F 1012.4 in SE 14.8 mph 14.8 mph 58 % 0.0 in 25.0 W/m2 BKN
20:27 27.2 °F 18.2 °F 1012.4 in SE 33.8 mph 33.8 mph 58 % 0.0 in 19.0 W/m2 BKN
20:32 27.1 °F 18.1 °F 1012.8 in SSE 27.8 mph 27.8 mph 58 % 0.0 in 14.0 W/m2 BKN
20:37 26.9 °F 18.5 °F 1012.8 in SSE 22.2 mph 22.2 mph 60 % 0.0 in 11.0 W/m2 BKN
20:42 26.7 °F 18.6 °F 1012.8 in SSE 25.9 mph 25.9 mph 61 % 0.0 in 7.0 W/m2 BKN
20:47 26.7 °F 18.5 °F 1012.8 in SE 29.6 mph 29.6 mph 61 % 0.0 in 5.0 W/m2 OVC
20:52 26.6 °F 18.7 °F 1012.8 in South 18.5 mph 18.5 mph 62 % 0.0 in 0.0 W/m2 OVC
20:57 26.6 °F 18.4 °F 1013.1 in SE 25.9 mph 25.9 mph 61 % 0.0 in 0.0 W/m2 OVC
21:02 26.5 °F 18.4 °F 1013.1 in SE 25.9 mph 25.9 mph 61 % 0.0 in 0.0 W/m2 OVC
21:07 26.5 °F 18.4 °F 1013.1 in SE 25.9 mph 25.9 mph 61 % 0.0 in 0.0 W/m2 OVC
21:12 26.4 °F 18.3 °F 1013.4 in SE 25.9 mph 25.9 mph 61 % 0.0 in 0.0 W/m2 OVC
21:17 26.4 °F 18.5 °F 1013.4 in SE 18.5 mph 18.5 mph 62 % 0.0 in 0.0 W/m2 OVC
21:22 26.3 °F 18.4 °F 1013.4 in SE 20.4 mph 20.4 mph 62 % 0.0 in 0.0 W/m2 OVC
21:27 26.2 °F 18.6 °F 1013.4 in SSE 25.9 mph 25.9 mph 63 % 0.0 in 0.0 W/m2 OVC
21:32 26.1 °F 18.7 °F 1013.4 in SE 18.5 mph 18.5 mph 64 % 0.0 in 0.0 W/m2 OVC
21:37 26.0 °F 18.9 °F 1013.4 in SSE 31.5 mph 31.5 mph 65 % 0.0 in 0.0 W/m2 OVC
21:42 25.7 °F 19.1 °F 1013.8 in SSE 25.9 mph 25.9 mph 67 % 0.0 in 0.0 W/m2 CLR
21:47 25.5 °F 19.2 °F 1014.1 in SSE 20.4 mph 20.4 mph 68 % 0.0 in 0.0 W/m2 CLR
21:52 25.7 °F 18.8 °F 1014.1 in SSE 24.1 mph 24.1 mph 66 % 0.0 in 0.0 W/m2 CLR
21:57 25.7 °F 18.9 °F 1014.1 in SE 31.5 mph 31.5 mph 66 % 0.0 in 0.0 W/m2 CLR
22:02 25.6 °F 18.8 °F 1014.1 in SE 20.9 mph 20.9 mph 66 % 0.0 in 0.0 W/m2 CLR
22:07 25.6 °F 18.7 °F 1014.4 in SSE 22.2 mph 22.2 mph 66 % 0.0 in 0.0 W/m2 CLR
22:12 25.5 °F 18.7 °F 1014.8 in SE 31.5 mph 31.5 mph 66 % 0.0 in 0.0 W/m2 CLR
22:17 25.5 °F 18.7 °F 1015.5 in South 13.0 mph 13.0 mph 66 % 0.0 in 0.0 W/m2 CLR
22:22 25.6 °F 18.7 °F 1016.1 in SW 9.3 mph 10.1 mph 66 % 0.0 in 0.0 W/m2 CLR
22:27 25.5 °F 18.7 °F 1016.5 in SW 9.3 mph 9.3 mph 66 % 0.0 in 0.0 W/m2 CLR
22:32 25.5 °F 18.9 °F 1016.1 in Calm     67 % 0.0 in 0.0 W/m2 CLR
22:37 25.4 °F 18.9 °F 1015.5 in Calm     67 % 0.0 in 0.0 W/m2 CLR
22:43 25.4 °F 18.9 °F 1015.5 in Calm     67 % 0.0 in 0.0 W/m2 CLR
22:48 25.4 °F 18.8 °F 1015.5 in Calm     67 % 0.0 in 0.0 W/m2 CLR
22:53 25.3 °F 18.8 °F 1015.5 in Calm     67 % 0.0 in 0.0 W/m2 CLR
22:58 25.3 °F 18.9 °F 1015.1 in Calm     68 % 0.0 in 0.0 W/m2 CLR
23:03 25.2 °F 18.9 °F 1015.1 in Calm     68 % 0.0 in 0.0 W/m2 CLR
23:08 25.1 °F 18.8 °F 1015.1 in Calm     68 % 0.0 in 0.0 W/m2 CLR
23:13 25.1 °F 18.7 °F 1014.8 in ENE 9.7 mph 9.7 mph 68 % 0.0 in 0.0 W/m2 CLR
23:18 24.9 °F 18.9 °F 1014.8 in ENE 7.4 mph 7.4 mph 69 % 0.0 in 0.0 W/m2 CLR
23:23 24.8 °F 18.5 °F 1014.4 in East 6.4 mph 6.4 mph 68 % 0.0 in 0.0 W/m2 CLR
23:24 24.8 °F 18.5 °F 1014.4 in East 7.4 mph 7.4 mph 68 % 0.0 in 0.0 W/m2 CLR
23:29 24.9 °F 18.6 °F 1014.4 in ESE 16.7 mph 16.7 mph 68 % 0.0 in 0.0 W/m2 CLR
23:34 24.8 °F 18.7 °F 1014.1 in SE 5.6 mph 5.6 mph 69 % 0.0 in 0.0 W/m2 CLR
23:39 24.7 °F 18.2 °F 1013.4 in SE 18.5 mph 18.5 mph 67 % 0.0 in 0.0 W/m2 CLR
23:44 24.7 °F 18.4 °F 1013.1 in ESE 16.7 mph 16.7 mph 68 % 0.0 in 0.0 W/m2 CLR
23:49 24.6 °F 18.3 °F 1013.1 in SE 16.7 mph 16.7 mph 68 % 0.0 in 0.0 W/m2 CLR
23:54 24.6 °F 18.3 °F 1012.8 in SE 22.2 mph 22.2 mph 68 % 0.0 in 0.0 W/m2 CLR
23:55 24.6 °F 18.3 °F 1012.8 in ESE 22.2 mph 22.2 mph 68 % 0.0 in 0.0 W/m2 CLR
23:59 24.6 °F 18.3 °F 1012.8 in SE 18.5 mph 18.5 mph 68 % 0.0 in 0.0 W/m2 CLR
Lo Temps de Massalio
Compliments of Weather Underground - 1.25 mb